createdAt,value
2023-03-10T00:00:59.854Z,2.90
2023-03-10T00:03:31.520Z,2.77
2023-03-10T00:06:04.883Z,3.07
2023-03-10T00:08:36.846Z,3.00
2023-03-10T00:11:09.020Z,3.28
2023-03-10T00:13:41.141Z,3.30
2023-03-10T00:16:27.972Z,2.70
2023-03-10T00:18:59.764Z,3.10
2023-03-10T00:21:33.124Z,3.37
2023-03-10T00:24:05.143Z,2.93
2023-03-10T00:26:38.284Z,3.60
2023-03-10T00:29:12.118Z,2.90
2023-03-10T00:31:44.439Z,2.70
2023-03-10T00:34:16.123Z,2.40
2023-03-10T00:36:47.780Z,2.70
2023-03-10T00:39:19.586Z,3.00
2023-03-10T00:41:51.364Z,3.03
2023-03-10T00:44:23.173Z,3.30
2023-03-10T00:46:55.208Z,3.73
2023-03-10T00:49:26.954Z,3.30
2023-03-10T00:51:58.862Z,3.07
2023-03-10T00:54:30.596Z,3.33
2023-03-10T00:57:02.601Z,2.83
2023-03-10T00:59:47.757Z,2.77
2023-03-10T01:02:21.560Z,2.80
2023-03-10T01:04:53.370Z,3.13
2023-03-10T01:07:25.057Z,2.50
2023-03-10T01:09:56.784Z,2.87
2023-03-10T01:12:28.481Z,3.27
2023-03-10T01:15:00.247Z,2.80
2023-03-10T01:17:32.017Z,2.40
2023-03-10T01:20:07.988Z,3.03
2023-03-10T01:22:39.669Z,2.83
2023-03-10T01:25:15.463Z,3.20
2023-03-10T01:27:47.193Z,3.23
2023-03-10T01:30:18.950Z,2.93
2023-03-10T01:32:51.085Z,2.60
2023-03-10T01:35:23.003Z,2.57
2023-03-10T01:37:54.820Z,2.30
2023-03-10T01:40:27.491Z,2.05
2023-03-10T01:43:22.124Z,2.47
2023-03-10T01:45:53.887Z,2.10
2023-03-10T01:48:25.686Z,2.10
2023-03-10T01:50:58.372Z,2.47
2023-03-10T01:53:30.189Z,2.47
2023-03-10T01:56:04.040Z,2.17
2023-03-10T01:58:41.068Z,2.00
2023-03-10T02:01:14.596Z,2.50
2023-03-10T02:04:00.197Z,2.10
2023-03-10T02:06:34.528Z,2.40
2023-03-10T02:09:06.759Z,2.37
2023-03-10T02:11:39.021Z,1.97
2023-03-10T02:14:10.852Z,1.90
2023-03-10T02:16:42.853Z,1.60
2023-03-10T02:19:35.750Z,2.27
2023-03-10T02:22:10.295Z,2.00
2023-03-10T02:24:55.002Z,2.13
2023-03-10T02:27:32.160Z,1.93
2023-03-10T02:30:14.887Z,1.87
2023-03-10T02:32:51.426Z,2.57
2023-03-10T02:35:23.804Z,2.20
2023-03-10T02:37:55.646Z,1.83
2023-03-10T02:40:37.953Z,2.23
2023-03-10T02:43:31.602Z,2.27
2023-03-10T02:46:05.273Z,1.70
2023-03-10T02:48:39.952Z,1.93
2023-03-10T02:51:18.289Z,1.87
2023-03-10T02:53:50.241Z,2.93
2023-03-10T02:56:21.998Z,2.07
2023-03-10T02:58:53.816Z,1.60
2023-03-10T03:01:26.530Z,1.87
2023-03-10T03:03:59.225Z,2.33
2023-03-10T03:06:31.101Z,1.60
2023-03-10T03:09:03.266Z,2.23
2023-03-10T03:11:34.967Z,2.20
2023-03-10T03:14:07.870Z,3.37
2023-03-10T03:16:39.625Z,1.90
2023-03-10T03:19:11.447Z,1.60
2023-03-10T03:21:50.123Z,1.30
2023-03-10T03:24:22.101Z,1.13
2023-03-10T03:26:53.844Z,1.10
2023-03-10T03:29:25.663Z,1.30
2023-03-10T03:31:57.458Z,0.90
2023-03-10T03:34:29.287Z,1.23
2023-03-10T03:37:01.069Z,1.10
2023-03-10T03:39:32.804Z,1.43
2023-03-10T03:42:04.688Z,1.10
2023-03-10T03:44:36.426Z,1.40
2023-03-10T03:47:10.387Z,1.30
2023-03-10T03:49:42.406Z,1.50
2023-03-10T03:52:14.156Z,0.93
2023-03-10T03:54:45.839Z,1.40
2023-03-10T03:57:17.779Z,1.10
2023-03-10T03:59:49.794Z,1.13
2023-03-10T04:02:21.649Z,1.10
2023-03-10T04:04:54.527Z,1.20
2023-03-10T04:07:26.430Z,1.30
2023-03-10T04:09:58.169Z,1.47
2023-03-10T04:12:29.960Z,1.30
2023-03-10T04:15:01.728Z,1.10
2023-03-10T04:17:34.082Z,1.20
2023-03-10T04:20:08.935Z,1.20
2023-03-10T04:22:40.782Z,1.37
2023-03-10T04:25:13.043Z,1.20
2023-03-10T04:27:44.773Z,1.50
2023-03-10T04:30:16.641Z,1.50
2023-03-10T04:32:49.380Z,2.00
2023-03-10T04:35:21.168Z,1.50
2023-03-10T04:37:53.168Z,1.10
2023-03-10T04:40:24.970Z,1.40
2023-03-10T04:42:56.822Z,1.63
2023-03-10T04:45:28.578Z,1.57
2023-03-10T04:48:00.461Z,1.60
2023-03-10T04:50:32.162Z,1.40
2023-03-10T04:53:03.890Z,1.20
2023-03-10T04:55:35.669Z,2.87
2023-03-10T04:58:07.354Z,1.97
2023-03-10T05:00:53.064Z,1.50
2023-03-10T05:03:32.219Z,1.80
2023-03-10T05:06:04.336Z,1.40
2023-03-10T05:08:35.989Z,1.30
2023-03-10T05:11:08.453Z,1.50
2023-03-10T05:13:40.504Z,1.50
2023-03-10T05:16:20.773Z,1.30
2023-03-10T05:18:52.998Z,1.50
2023-03-10T05:21:24.754Z,1.67
2023-03-10T05:23:56.576Z,1.20
2023-03-10T05:26:28.376Z,1.57
2023-03-10T05:29:00.125Z,1.40
2023-03-10T05:31:32.064Z,1.67
2023-03-10T05:34:03.896Z,1.80
2023-03-10T05:36:35.614Z,1.37
2023-03-10T05:39:07.665Z,1.93
2023-03-10T05:41:39.798Z,1.60
2023-03-10T05:44:11.547Z,1.80
2023-03-10T05:46:43.374Z,1.70
2023-03-10T05:49:15.087Z,1.40
2023-03-10T05:51:46.773Z,1.90
2023-03-10T05:54:18.995Z,1.90
2023-03-10T05:56:51.088Z,2.10
2023-03-10T05:59:22.829Z,2.30
2023-03-10T06:01:54.780Z,1.50
2023-03-10T06:04:28.430Z,1.30
2023-03-10T06:07:01.103Z,1.70
2023-03-10T06:09:33.234Z,1.50
2023-03-10T06:12:05.186Z,1.80
2023-03-10T06:14:38.787Z,1.30
2023-03-10T06:17:10.528Z,1.23
2023-03-10T06:19:42.260Z,1.20
2023-03-10T06:22:14.004Z,1.42
2023-03-10T06:24:45.905Z,1.80
2023-03-10T06:27:17.669Z,1.50
2023-03-10T06:29:50.405Z,2.20
2023-03-10T06:32:22.619Z,1.17
2023-03-10T06:34:54.658Z,1.70
2023-03-10T06:37:26.500Z,1.53
2023-03-10T06:39:58.269Z,1.20
2023-03-10T06:42:32.487Z,1.93
2023-03-10T06:45:04.657Z,1.50
2023-03-10T06:47:36.668Z,1.57
2023-03-10T06:50:09.244Z,1.50
2023-03-10T06:52:42.502Z,1.60
2023-03-10T06:55:15.898Z,1.83
2023-03-10T06:57:48.837Z,1.83
2023-03-10T07:00:20.719Z,2.30
2023-03-10T07:02:52.928Z,3.50
2023-03-10T07:05:27.125Z,1.40
2023-03-10T07:07:58.882Z,1.67
2023-03-10T07:10:30.607Z,1.70
2023-03-10T07:13:03.010Z,2.50
2023-03-10T07:15:34.793Z,1.90
2023-03-10T07:18:06.686Z,1.40
2023-03-10T07:20:44.688Z,1.60
2023-03-10T07:23:16.482Z,1.10
2023-03-10T07:25:56.468Z,1.63
2023-03-10T07:28:28.408Z,1.80
2023-03-10T07:31:08.671Z,1.20
2023-03-10T07:33:40.633Z,1.57
2023-03-10T07:36:15.653Z,1.73
2023-03-10T07:38:47.436Z,1.37
2023-03-10T07:41:21.892Z,1.50
2023-03-10T07:43:54.945Z,1.80
2023-03-10T07:46:26.996Z,1.93
2023-03-10T07:49:04.044Z,1.93
2023-03-10T07:51:35.882Z,2.00
2023-03-10T07:54:07.632Z,1.90
2023-03-10T07:56:39.600Z,3.27
2023-03-10T07:59:11.273Z,2.63
2023-03-10T08:01:43.006Z,1.73
2023-03-10T08:04:17.037Z,2.30
2023-03-10T08:06:49.055Z,1.70
2023-03-10T08:09:20.824Z,1.17
2023-03-10T08:11:52.561Z,1.23
2023-03-10T08:14:24.817Z,0.80
2023-03-10T08:16:57.082Z,0.90
2023-03-10T08:19:28.809Z,1.10
2023-03-10T08:22:02.196Z,1.10
2023-03-10T08:24:33.892Z,0.93
2023-03-10T08:27:05.977Z,1.70
2023-03-10T08:29:37.812Z,0.93
2023-03-10T08:32:09.664Z,1.17
2023-03-10T08:34:43.045Z,1.33
2023-03-10T08:37:14.875Z,1.38
2023-03-10T08:39:46.704Z,2.07
2023-03-10T08:42:18.372Z,2.00
2023-03-10T08:44:50.186Z,1.47
2023-03-10T08:47:23.370Z,2.10
2023-03-10T08:49:55.075Z,2.40
2023-03-10T08:52:26.855Z,1.90
2023-03-10T08:54:59.987Z,1.90
2023-03-10T08:57:32.113Z,1.73
2023-03-10T09:00:06.363Z,2.57
2023-03-10T09:02:38.281Z,1.60
2023-03-10T09:05:10.662Z,2.20
2023-03-10T09:07:42.448Z,1.67
2023-03-10T09:10:14.174Z,1.40
2023-03-10T09:12:45.886Z,1.40
2023-03-10T09:15:18.371Z,1.00
2023-03-10T09:17:50.163Z,1.00
2023-03-10T09:20:28.234Z,1.77
2023-03-10T09:23:01.024Z,1.10
2023-03-10T09:25:32.726Z,1.37
2023-03-10T09:28:04.545Z,1.40
2023-03-10T09:30:38.015Z,1.10
2023-03-10T09:33:15.767Z,1.00
2023-03-10T09:36:04.975Z,1.33
2023-03-10T09:38:37.843Z,1.20
2023-03-10T09:41:54.326Z,1.67
2023-03-10T09:44:43.258Z,1.13
2023-03-10T09:47:24.949Z,1.20
2023-03-10T09:50:14.146Z,1.97
2023-03-10T09:52:47.212Z,1.97
2023-03-10T09:55:33.428Z,1.40
2023-03-10T09:58:05.612Z,1.20
2023-03-10T10:00:41.197Z,1.40
2023-03-10T10:03:20.654Z,1.17
2023-03-10T10:05:55.228Z,1.10
2023-03-10T10:08:49.108Z,1.20
2023-03-10T10:11:26.738Z,1.20
2023-03-10T10:14:31.418Z,1.40
2023-03-10T10:17:26.887Z,1.30
2023-03-10T10:19:59.295Z,1.90
2023-03-10T10:22:34.627Z,0.93
2023-03-10T10:25:09.095Z,1.50
2023-03-10T10:27:42.647Z,1.37
2023-03-10T10:30:31.268Z,1.40
2023-03-10T10:33:08.597Z,1.70
2023-03-10T10:35:46.389Z,1.13
2023-03-10T10:38:24.707Z,1.30
2023-03-10T10:41:02.151Z,1.47
2023-03-10T10:43:43.456Z,1.80
2023-03-10T10:46:22.771Z,1.20
2023-03-10T10:49:23.128Z,1.70
2023-03-10T10:52:04.054Z,2.13
2023-03-10T10:54:42.152Z,1.80
2023-03-10T10:57:35.216Z,1.27
2023-03-10T11:00:27.960Z,1.53
2023-03-10T11:03:00.517Z,1.30
2023-03-10T11:05:38.702Z,1.97
2023-03-10T11:08:32.829Z,1.47
2023-03-10T11:11:20.412Z,1.30
2023-03-10T11:14:06.183Z,3.70
2023-03-10T11:17:02.056Z,2.00
2023-03-10T11:19:52.517Z,1.10
2023-03-10T11:22:36.876Z,1.20
2023-03-10T11:25:27.189Z,0.93
2023-03-10T11:28:42.828Z,1.10
2023-03-10T11:31:27.169Z,1.30
2023-03-10T11:34:14.152Z,1.47
2023-03-10T11:36:56.682Z,1.30
2023-03-10T11:39:50.017Z,1.30
2023-03-10T11:42:36.509Z,1.10
2023-03-10T11:45:34.089Z,1.40
2023-03-10T11:48:05.727Z,1.83
2023-03-10T11:50:59.675Z,1.03
2023-03-10T11:53:46.378Z,1.27
2023-03-10T11:56:22.119Z,1.37
2023-03-10T11:59:22.026Z,1.30
2023-03-10T12:02:10.363Z,1.43
2023-03-10T12:04:47.796Z,1.77
2023-03-10T12:07:31.623Z,1.60
2023-03-10T12:10:12.665Z,1.50
2023-03-10T12:12:47.017Z,1.60
2023-03-10T12:15:25.115Z,1.00
2023-03-10T12:17:57.282Z,1.87
2023-03-10T12:20:30.689Z,1.47
2023-03-10T12:23:11.199Z,1.23
2023-03-10T12:25:43.985Z,1.90
2023-03-10T12:28:28.695Z,1.70
2023-03-10T12:31:38.853Z,1.03
2023-03-10T12:34:23.582Z,1.33
2023-03-10T12:37:04.731Z,1.37
2023-03-10T12:39:44.264Z,0.90
2023-03-10T12:42:31.805Z,1.53
2023-03-10T12:45:25.494Z,1.00
2023-03-10T12:48:04.871Z,0.90
2023-03-10T12:50:48.176Z,0.90
2023-03-10T12:53:45.344Z,1.03
2023-03-10T12:56:32.608Z,1.20
2023-03-10T12:59:16.610Z,0.90
2023-03-10T13:01:55.955Z,1.00
2023-03-10T13:04:28.484Z,0.90
2023-03-10T13:07:03.517Z,0.90
2023-03-10T13:09:42.386Z,0.80
2023-03-10T13:12:24.240Z,1.00
2023-03-10T13:14:59.328Z,0.90
2023-03-10T13:17:33.104Z,0.60
2023-03-10T13:20:08.388Z,0.93
2023-03-10T13:22:40.518Z,1.13
2023-03-10T13:25:14.885Z,1.00
2023-03-10T13:27:47.029Z,0.90
2023-03-10T13:30:21.351Z,1.00
2023-03-10T13:32:57.352Z,0.93
2023-03-10T13:35:37.577Z,1.03
2023-03-10T13:38:12.336Z,1.10
2023-03-10T13:40:47.162Z,0.90
2023-03-10T13:43:34.169Z,0.90
2023-03-10T13:46:17.240Z,0.80
2023-03-10T13:48:49.633Z,1.43
2023-03-10T13:51:32.044Z,1.43
2023-03-10T13:54:25.323Z,1.20
2023-03-10T13:57:16.560Z,1.30
2023-03-10T13:59:49.204Z,0.87
2023-03-10T14:02:29.959Z,0.90
2023-03-10T14:05:02.011Z,1.10
2023-03-10T14:07:38.181Z,1.20
2023-03-10T14:10:12.185Z,1.13
2023-03-10T14:12:54.488Z,1.00
2023-03-10T14:15:28.589Z,1.23
2023-03-10T14:18:09.236Z,1.23
2023-03-10T14:20:46.229Z,1.00
2023-03-10T14:23:25.742Z,1.17
2023-03-10T14:25:58.030Z,1.20
2023-03-10T14:28:32.272Z,1.10
2023-03-10T14:31:05.951Z,0.90
2023-03-10T14:33:37.684Z,1.00
2023-03-10T14:36:12.157Z,1.00
2023-03-10T14:38:45.965Z,0.90
2023-03-10T14:41:21.346Z,1.00
2023-03-10T14:43:53.445Z,0.97
2023-03-10T14:46:25.565Z,0.77
2023-03-10T14:48:57.551Z,1.00
2023-03-10T14:51:36.127Z,0.90
2023-03-10T14:54:18.570Z,1.00
2023-03-10T14:56:58.830Z,0.90
2023-03-10T14:59:30.696Z,1.00
2023-03-10T15:02:10.330Z,0.80
2023-03-10T15:04:42.069Z,0.80
2023-03-10T15:07:15.210Z,0.80
2023-03-10T15:09:46.924Z,0.90
2023-03-10T15:12:19.097Z,1.00
2023-03-10T15:14:55.150Z,0.90
2023-03-10T15:17:26.959Z,0.80
2023-03-10T15:19:58.677Z,1.17
2023-03-10T15:22:30.636Z,0.80
2023-03-10T15:25:02.384Z,1.23
2023-03-10T15:27:34.114Z,0.80
2023-03-10T15:30:07.179Z,1.20
2023-03-10T15:32:38.979Z,0.97
2023-03-10T15:35:12.201Z,1.00
2023-03-10T15:37:44.383Z,1.30
2023-03-10T15:40:26.661Z,1.00
2023-03-10T15:42:59.921Z,1.50
2023-03-10T15:45:31.919Z,1.23
2023-03-10T15:48:03.803Z,1.20
2023-03-10T15:50:36.473Z,1.73
2023-03-10T15:53:08.768Z,1.40
2023-03-10T15:55:42.120Z,1.40
2023-03-10T15:58:13.903Z,1.37
2023-03-10T16:00:45.674Z,1.20
2023-03-10T16:03:18.413Z,1.47
2023-03-10T16:05:50.314Z,1.57
2023-03-10T16:08:22.065Z,1.77
2023-03-10T16:10:54.914Z,1.93
2023-03-10T16:13:26.665Z,1.47
2023-03-10T16:15:58.547Z,1.50
2023-03-10T16:18:30.311Z,2.07
2023-03-10T16:21:03.619Z,2.13
2023-03-10T16:23:35.404Z,2.00
2023-03-10T16:26:19.464Z,2.20
2023-03-10T16:28:54.917Z,2.00
2023-03-10T16:31:27.327Z,2.70
2023-03-10T16:33:59.151Z,2.90
2023-03-10T16:36:31.618Z,1.90
2023-03-10T16:39:10.246Z,1.80
2023-03-10T16:41:42.165Z,2.03
2023-03-10T16:44:15.372Z,2.03
2023-03-10T16:46:47.190Z,1.73
2023-03-10T16:49:19.032Z,1.80
2023-03-10T16:51:50.790Z,1.93
2023-03-10T16:54:22.779Z,2.03
2023-03-10T16:56:57.026Z,1.90
2023-03-10T16:59:28.850Z,1.90
2023-03-10T17:02:00.891Z,1.50
2023-03-10T17:04:33.050Z,1.90
2023-03-10T17:07:04.825Z,1.60
2023-03-10T17:09:37.968Z,2.10
2023-03-10T17:12:09.801Z,2.10
2023-03-10T17:14:43.169Z,1.90
2023-03-10T17:17:14.964Z,1.70
2023-03-10T17:19:49.508Z,2.27
2023-03-10T17:22:21.248Z,1.90
2023-03-10T17:24:57.234Z,2.10
2023-03-10T17:27:28.944Z,2.00
2023-03-10T17:30:00.779Z,2.43
2023-03-10T17:32:32.594Z,1.70
2023-03-10T17:35:05.505Z,2.20
2023-03-10T17:37:37.212Z,2.83
2023-03-10T17:40:09.992Z,2.40
2023-03-10T17:42:45.046Z,2.07
2023-03-10T17:45:16.758Z,2.73
2023-03-10T17:47:48.601Z,1.90
2023-03-10T17:50:22.488Z,2.10
2023-03-10T17:52:54.196Z,2.57
2023-03-10T17:55:26.375Z,2.00
2023-03-10T17:57:58.117Z,2.40
2023-03-10T18:00:29.858Z,2.43
2023-03-10T18:03:01.659Z,2.27
2023-03-10T18:05:38.333Z,2.10
2023-03-10T18:08:11.756Z,2.43
2023-03-10T18:10:43.485Z,3.30
2023-03-10T18:13:15.352Z,2.50
2023-03-10T18:15:51.084Z,2.17
2023-03-10T18:18:23.088Z,2.60
2023-03-10T18:20:54.914Z,2.63
2023-03-10T18:23:27.006Z,2.20
2023-03-10T18:25:58.902Z,2.30
2023-03-10T18:28:30.569Z,2.60
2023-03-10T18:31:03.128Z,2.33
2023-03-10T18:33:35.627Z,2.70
2023-03-10T18:36:08.345Z,2.90
2023-03-10T18:38:40.928Z,2.93
2023-03-10T18:41:12.745Z,2.50
2023-03-10T18:43:45.176Z,3.90
2023-03-10T18:46:17.137Z,2.20
2023-03-10T18:48:55.339Z,2.50
2023-03-10T18:51:28.195Z,3.00
2023-03-10T18:53:59.936Z,2.10
2023-03-10T18:56:31.646Z,2.60
2023-03-10T18:59:03.533Z,3.40
2023-03-10T19:01:35.299Z,3.73
2023-03-10T19:04:07.031Z,3.50
2023-03-10T19:06:38.993Z,3.20
2023-03-10T19:09:10.710Z,2.90
2023-03-10T19:11:42.439Z,3.17
2023-03-10T19:14:14.146Z,2.70
2023-03-10T19:16:47.311Z,3.80
2023-03-10T19:19:19.028Z,3.40
2023-03-10T19:21:50.792Z,3.90
2023-03-10T19:24:22.546Z,2.70
2023-03-10T19:26:54.436Z,4.10
2023-03-10T19:29:26.159Z,2.83
2023-03-10T19:31:59.258Z,3.33
2023-03-10T19:34:31.052Z,2.77
2023-03-10T19:37:02.841Z,3.10
2023-03-10T19:39:34.603Z,3.43
2023-03-10T19:42:06.473Z,2.90
2023-03-10T19:44:39.428Z,3.20
2023-03-10T19:47:11.206Z,3.00
2023-03-10T19:49:43.177Z,2.72
2023-03-10T19:52:14.951Z,3.27
2023-03-10T19:54:46.753Z,2.90
2023-03-10T19:57:18.596Z,2.60
2023-03-10T19:59:50.507Z,3.17
2023-03-10T20:02:24.630Z,2.70
2023-03-10T20:04:56.320Z,2.67
2023-03-10T20:07:27.995Z,2.93
2023-03-10T20:09:59.773Z,1.70
2023-03-10T20:12:31.522Z,2.03
2023-03-10T20:15:04.145Z,2.97
2023-03-10T20:17:36.343Z,2.27
2023-03-10T20:20:12.243Z,2.90
2023-03-10T20:22:45.613Z,2.30
2023-03-10T20:25:21.184Z,2.63
2023-03-10T20:27:54.766Z,2.03
2023-03-10T20:30:30.368Z,2.17
2023-03-10T20:33:02.180Z,2.00
2023-03-10T20:35:34.225Z,1.90
2023-03-10T20:38:05.967Z,2.27
2023-03-10T20:40:38.610Z,2.40
2023-03-10T20:43:10.619Z,2.20
2023-03-10T20:45:42.506Z,2.60
2023-03-10T20:48:14.268Z,1.90
2023-03-10T20:50:46.132Z,2.60
2023-03-10T20:53:17.862Z,1.93
2023-03-10T20:55:49.636Z,1.90
2023-03-10T20:58:21.435Z,1.63
2023-03-10T21:00:53.455Z,1.70
2023-03-10T21:03:27.107Z,2.47
2023-03-10T21:05:58.832Z,2.17
2023-03-10T21:08:30.576Z,2.00
2023-03-10T21:11:02.530Z,2.27
2023-03-10T21:13:34.203Z,2.80
2023-03-10T21:16:06.158Z,2.60
2023-03-10T21:18:38.300Z,2.30
2023-03-10T21:21:10.146Z,1.87
2023-03-10T21:23:42.498Z,2.80
2023-03-10T21:26:19.764Z,2.27
2023-03-10T21:28:51.507Z,2.50
2023-03-10T21:31:23.790Z,2.03
2023-03-10T21:33:55.685Z,2.43
2023-03-10T21:36:27.826Z,2.25
2023-03-10T21:38:59.577Z,2.37
2023-03-10T21:41:31.586Z,2.28
2023-03-10T21:44:03.431Z,2.20
2023-03-10T21:46:35.526Z,1.93
2023-03-10T21:49:09.133Z,1.87
2023-03-10T21:51:40.922Z,2.37
2023-03-10T21:54:12.803Z,2.03
2023-03-10T21:56:44.626Z,2.20
2023-03-10T21:59:16.624Z,1.87
2023-03-10T22:01:48.504Z,1.80
2023-03-10T22:04:20.456Z,2.77
2023-03-10T22:06:52.191Z,1.73
2023-03-10T22:09:24.042Z,1.60
2023-03-10T22:11:55.764Z,2.10
2023-03-10T22:14:27.664Z,2.20
2023-03-10T22:16:59.328Z,2.10
2023-03-10T22:19:31.343Z,2.30
2023-03-10T22:22:03.068Z,1.83
2023-03-10T22:24:34.812Z,2.43
2023-03-10T22:27:06.709Z,2.80
2023-03-10T22:29:38.492Z,2.37
2023-03-10T22:32:10.782Z,2.27
2023-03-10T22:34:42.708Z,3.00
2023-03-10T22:37:14.422Z,1.65
2023-03-10T22:39:46.516Z,2.47
2023-03-10T22:42:18.395Z,2.37
2023-03-10T22:44:50.069Z,2.30
2023-03-10T22:47:22.006Z,2.03
2023-03-10T22:49:53.969Z,1.87
2023-03-10T22:52:25.775Z,2.43
2023-03-10T22:54:58.724Z,2.00
2023-03-10T22:57:30.520Z,2.00
2023-03-10T23:00:02.448Z,1.97
2023-03-10T23:02:34.306Z,2.27
2023-03-10T23:05:06.948Z,2.50
2023-03-10T23:07:39.031Z,2.20
2023-03-10T23:10:16.972Z,2.03
2023-03-10T23:12:49.206Z,1.87
2023-03-10T23:15:33.558Z,2.10
2023-03-10T23:18:06.743Z,2.00
2023-03-10T23:20:44.100Z,2.67
2023-03-10T23:23:17.330Z,2.23
2023-03-10T23:25:50.981Z,2.20
2023-03-10T23:28:22.754Z,2.30
2023-03-10T23:30:54.480Z,1.93
2023-03-10T23:33:26.278Z,1.70
2023-03-10T23:35:58.126Z,2.50
2023-03-10T23:38:30.070Z,1.83
2023-03-10T23:41:02.485Z,2.07
2023-03-10T23:43:35.508Z,1.80
2023-03-10T23:46:08.410Z,2.23
2023-03-10T23:48:40.378Z,2.00
2023-03-10T23:51:16.712Z,1.87
2023-03-10T23:53:48.534Z,1.97
2023-03-10T23:56:20.313Z,2.30
2023-03-10T23:58:52.037Z,1.63
